sensor_id;sensor_type;location;lat;lon;timestamp;P1;durP1;ratioP1;P2;durP2;ratioP2
40827;SDS011;26549;50.918;5.338;2023-02-26T00:01:16;10.70;;;3.50;;
40827;SDS011;26549;50.918;5.338;2023-02-26T00:03:43;6.68;;;3.10;;
40827;SDS011;26549;50.918;5.338;2023-02-26T00:06:13;9.77;;;3.70;;
40827;SDS011;26549;50.918;5.338;2023-02-26T00:08:39;10.13;;;3.63;;
40827;SDS011;26549;50.918;5.338;2023-02-26T00:11:05;10.45;;;3.67;;
40827;SDS011;26549;50.918;5.338;2023-02-26T00:13:32;8.52;;;3.92;;
40827;SDS011;26549;50.918;5.338;2023-02-26T00:15:59;13.30;;;3.88;;
40827;SDS011;26549;50.918;5.338;2023-02-26T00:18:25;4.63;;;3.33;;
40827;SDS011;26549;50.918;5.338;2023-02-26T00:20:52;7.45;;;3.50;;
40827;SDS011;26549;50.918;5.338;2023-02-26T00:23:18;7.90;;;3.58;;
40827;SDS011;26549;50.918;5.338;2023-02-26T00:25:44;9.73;;;3.53;;
40827;SDS011;26549;50.918;5.338;2023-02-26T00:28:12;11.43;;;3.88;;
40827;SDS011;26549;50.918;5.338;2023-02-26T00:30:38;6.13;;;3.38;;
40827;SDS011;26549;50.918;5.338;2023-02-26T00:33:04;7.75;;;3.22;;
40827;SDS011;26549;50.918;5.338;2023-02-26T00:35:31;8.75;;;4.22;;
40827;SDS011;26549;50.918;5.338;2023-02-26T00:37:58;9.15;;;4.00;;
40827;SDS011;26549;50.918;5.338;2023-02-26T00:45:44;10.68;;;4.10;;
40827;SDS011;26549;50.918;5.338;2023-02-26T00:48:21;10.02;;;5.22;;
40827;SDS011;26549;50.918;5.338;2023-02-26T00:51:01;6.78;;;4.22;;
40827;SDS011;26549;50.918;5.338;2023-02-26T00:53:42;6.63;;;3.50;;
40827;SDS011;26549;50.918;5.338;2023-02-26T00:56:29;10.25;;;3.83;;
40827;SDS011;26549;50.918;5.338;2023-02-26T00:58:55;10.40;;;3.53;;
40827;SDS011;26549;50.918;5.338;2023-02-26T01:01:21;8.70;;;4.05;;
40827;SDS011;26549;50.918;5.338;2023-02-26T01:03:47;5.30;;;3.75;;
40827;SDS011;26549;50.918;5.338;2023-02-26T01:06:14;6.90;;;3.10;;
40827;SDS011;26549;50.918;5.338;2023-02-26T01:08:52;7.07;;;3.17;;
40827;SDS011;26549;50.918;5.338;2023-02-26T01:11:30;10.68;;;4.65;;
40827;SDS011;26549;50.918;5.338;2023-02-26T01:13:58;4.03;;;3.30;;
40827;SDS011;26549;50.918;5.338;2023-02-26T01:16:26;11.20;;;3.90;;
40827;SDS011;26549;50.918;5.338;2023-02-26T01:18:57;9.82;;;3.63;;
40827;SDS011;26549;50.918;5.338;2023-02-26T01:21:30;5.60;;;3.20;;
40827;SDS011;26549;50.918;5.338;2023-02-26T01:24:01;10.20;;;3.00;;
40827;SDS011;26549;50.918;5.338;2023-02-26T01:26:30;7.78;;;3.53;;
40827;SDS011;26549;50.918;5.338;2023-02-26T01:28:56;10.15;;;3.30;;
40827;SDS011;26549;50.918;5.338;2023-02-26T01:34:33;8.50;;;3.40;;
40827;SDS011;26549;50.918;5.338;2023-02-26T01:37:06;4.88;;;2.65;;
40827;SDS011;26549;50.918;5.338;2023-02-26T01:42:34;7.05;;;3.30;;
40827;SDS011;26549;50.918;5.338;2023-02-26T01:45:10;8.00;;;3.25;;
40827;SDS011;26549;50.918;5.338;2023-02-26T01:47:44;14.23;;;3.65;;
40827;SDS011;26549;50.918;5.338;2023-02-26T01:50:17;11.27;;;3.35;;
40827;SDS011;26549;50.918;5.338;2023-02-26T01:55:31;6.03;;;2.90;;
40827;SDS011;26549;50.918;5.338;2023-02-26T01:57:57;8.75;;;4.57;;
40827;SDS011;26549;50.918;5.338;2023-02-26T02:00:25;9.38;;;2.67;;
40827;SDS011;26549;50.918;5.338;2023-02-26T02:02:51;13.90;;;3.42;;
40827;SDS011;26549;50.918;5.338;2023-02-26T02:05:21;8.32;;;3.45;;
40827;SDS011;26549;50.918;5.338;2023-02-26T02:07:52;7.32;;;2.55;;
40827;SDS011;26549;50.918;5.338;2023-02-26T02:10:18;10.82;;;3.47;;
40827;SDS011;26549;50.918;5.338;2023-02-26T02:12:50;8.45;;;3.35;;
40827;SDS011;26549;50.918;5.338;2023-02-26T02:29:32;9.45;;;3.00;;
40827;SDS011;26549;50.918;5.338;2023-02-26T02:32:29;10.70;;;3.90;;
40827;SDS011;26549;50.918;5.338;2023-02-26T02:35:28;8.50;;;3.35;;
40827;SDS011;26549;50.918;5.338;2023-02-26T02:38:06;7.47;;;3.58;;
40827;SDS011;26549;50.918;5.338;2023-02-26T02:40:36;9.20;;;3.15;;
40827;SDS011;26549;50.918;5.338;2023-02-26T02:43:12;12.10;;;3.30;;
40827;SDS011;26549;50.918;5.338;2023-02-26T02:45:41;10.43;;;3.60;;
40827;SDS011;26549;50.918;5.338;2023-02-26T02:48:37;3.97;;;2.70;;
40827;SDS011;26549;50.918;5.338;2023-02-26T02:51:11;7.00;;;3.30;;
40827;SDS011;26549;50.918;5.338;2023-02-26T02:53:44;9.32;;;3.28;;
40827;SDS011;26549;50.918;5.338;2023-02-26T02:56:16;7.20;;;3.13;;
40827;SDS011;26549;50.918;5.338;2023-02-26T02:58:43;13.05;;;3.20;;
40827;SDS011;26549;50.918;5.338;2023-02-26T03:01:16;3.65;;;3.05;;
40827;SDS011;26549;50.918;5.338;2023-02-26T03:06:22;6.38;;;2.35;;
40827;SDS011;26549;50.918;5.338;2023-02-26T03:08:48;4.95;;;3.08;;
40827;SDS011;26549;50.918;5.338;2023-02-26T03:11:16;7.20;;;2.88;;
40827;SDS011;26549;50.918;5.338;2023-02-26T03:13:42;8.82;;;2.72;;
40827;SDS011;26549;50.918;5.338;2023-02-26T03:19:17;7.13;;;3.78;;
40827;SDS011;26549;50.918;5.338;2023-02-26T03:22:12;6.15;;;2.70;;
40827;SDS011;26549;50.918;5.338;2023-02-26T03:24:50;8.13;;;3.25;;
40827;SDS011;26549;50.918;5.338;2023-02-26T03:29:54;4.75;;;2.85;;
40827;SDS011;26549;50.918;5.338;2023-02-26T03:32:31;6.85;;;2.53;;
40827;SDS011;26549;50.918;5.338;2023-02-26T03:35:12;5.25;;;2.50;;
40827;SDS011;26549;50.918;5.338;2023-02-26T03:37:48;6.32;;;2.70;;
40827;SDS011;26549;50.918;5.338;2023-02-26T03:42:47;6.35;;;2.45;;
40827;SDS011;26549;50.918;5.338;2023-02-26T03:45:19;7.38;;;3.15;;
40827;SDS011;26549;50.918;5.338;2023-02-26T03:47:51;6.35;;;2.80;;
40827;SDS011;26549;50.918;5.338;2023-02-26T03:50:21;6.45;;;2.83;;
40827;SDS011;26549;50.918;5.338;2023-02-26T03:53:01;5.95;;;3.10;;
40827;SDS011;26549;50.918;5.338;2023-02-26T03:55:44;4.80;;;2.65;;
40827;SDS011;26549;50.918;5.338;2023-02-26T03:58:15;7.93;;;2.45;;
40827;SDS011;26549;50.918;5.338;2023-02-26T04:00:41;4.13;;;2.30;;
40827;SDS011;26549;50.918;5.338;2023-02-26T04:03:12;7.30;;;3.38;;
40827;SDS011;26549;50.918;5.338;2023-02-26T04:05:42;7.43;;;2.85;;
40827;SDS011;26549;50.918;5.338;2023-02-26T04:08:12;4.10;;;2.83;;
40827;SDS011;26549;50.918;5.338;2023-02-26T04:10:42;11.50;;;4.00;;
40827;SDS011;26549;50.918;5.338;2023-02-26T04:13:19;10.70;;;2.50;;
40827;SDS011;26549;50.918;5.338;2023-02-26T04:15:45;6.80;;;2.47;;
40827;SDS011;26549;50.918;5.338;2023-02-26T04:18:11;7.57;;;2.85;;
40827;SDS011;26549;50.918;5.338;2023-02-26T04:20:36;4.60;;;2.20;;
40827;SDS011;26549;50.918;5.338;2023-02-26T04:23:02;8.07;;;2.80;;
40827;SDS011;26549;50.918;5.338;2023-02-26T04:25:28;3.95;;;3.65;;
40827;SDS011;26549;50.918;5.338;2023-02-26T04:27:54;9.93;;;2.88;;
40827;SDS011;26549;50.918;5.338;2023-02-26T04:30:21;3.75;;;2.22;;
40827;SDS011;26549;50.918;5.338;2023-02-26T04:32:47;9.93;;;2.28;;
40827;SDS011;26549;50.918;5.338;2023-02-26T04:35:12;7.22;;;3.47;;
40827;SDS011;26549;50.918;5.338;2023-02-26T04:37:38;10.27;;;2.47;;
40827;SDS011;26549;50.918;5.338;2023-02-26T04:40:04;4.30;;;1.95;;
40827;SDS011;26549;50.918;5.338;2023-02-26T04:42:31;4.50;;;2.55;;
40827;SDS011;26549;50.918;5.338;2023-02-26T04:44:57;5.88;;;2.72;;
40827;SDS011;26549;50.918;5.338;2023-02-26T04:47:23;4.72;;;2.10;;
40827;SDS011;26549;50.918;5.338;2023-02-26T04:49:48;7.95;;;2.80;;
40827;SDS011;26549;50.918;5.338;2023-02-26T04:52:14;4.78;;;2.35;;
40827;SDS011;26549;50.918;5.338;2023-02-26T04:54:40;3.65;;;2.08;;
40827;SDS011;26549;50.918;5.338;2023-02-26T04:57:06;7.25;;;2.40;;
40827;SDS011;26549;50.918;5.338;2023-02-26T04:59:32;4.95;;;3.35;;
40827;SDS011;26549;50.918;5.338;2023-02-26T05:01:58;5.70;;;2.22;;
40827;SDS011;26549;50.918;5.338;2023-02-26T05:04:24;6.10;;;3.95;;
40827;SDS011;26549;50.918;5.338;2023-02-26T05:06:49;5.18;;;2.22;;
40827;SDS011;26549;50.918;5.338;2023-02-26T05:09:15;5.13;;;2.50;;
40827;SDS011;26549;50.918;5.338;2023-02-26T05:11:41;6.80;;;2.45;;
40827;SDS011;26549;50.918;5.338;2023-02-26T05:14:07;5.63;;;2.50;;
40827;SDS011;26549;50.918;5.338;2023-02-26T05:16:33;5.05;;;2.20;;
40827;SDS011;26549;50.918;5.338;2023-02-26T05:18:58;5.20;;;2.63;;
40827;SDS011;26549;50.918;5.338;2023-02-26T05:21:24;3.33;;;2.20;;
40827;SDS011;26549;50.918;5.338;2023-02-26T05:23:50;5.78;;;2.17;;
40827;SDS011;26549;50.918;5.338;2023-02-26T05:26:16;6.80;;;2.00;;
40827;SDS011;26549;50.918;5.338;2023-02-26T05:28:41;6.72;;;2.53;;
40827;SDS011;26549;50.918;5.338;2023-02-26T05:31:10;4.95;;;2.63;;
40827;SDS011;26549;50.918;5.338;2023-02-26T05:33:36;11.02;;;4.50;;
40827;SDS011;26549;50.918;5.338;2023-02-26T05:36:02;6.68;;;2.10;;
40827;SDS011;26549;50.918;5.338;2023-02-26T05:38:31;3.67;;;2.90;;
40827;SDS011;26549;50.918;5.338;2023-02-26T05:40:57;2.25;;;1.73;;
40827;SDS011;26549;50.918;5.338;2023-02-26T05:43:23;10.27;;;3.00;;
40827;SDS011;26549;50.918;5.338;2023-02-26T05:45:50;3.60;;;1.95;;
40827;SDS011;26549;50.918;5.338;2023-02-26T05:48:16;4.95;;;2.85;;
40827;SDS011;26549;50.918;5.338;2023-02-26T05:50:42;4.20;;;2.67;;
40827;SDS011;26549;50.918;5.338;2023-02-26T05:53:08;5.43;;;1.80;;
40827;SDS011;26549;50.918;5.338;2023-02-26T05:55:33;5.28;;;2.45;;
40827;SDS011;26549;50.918;5.338;2023-02-26T05:57:59;5.30;;;1.73;;
40827;SDS011;26549;50.918;5.338;2023-02-26T06:00:25;3.97;;;2.05;;
40827;SDS011;26549;50.918;5.338;2023-02-26T06:02:52;4.53;;;1.95;;
40827;SDS011;26549;50.918;5.338;2023-02-26T06:05:18;10.80;;;2.13;;
40827;SDS011;26549;50.918;5.338;2023-02-26T06:07:44;5.20;;;2.47;;
40827;SDS011;26549;50.918;5.338;2023-02-26T06:10:10;7.55;;;2.00;;
40827;SDS011;26549;50.918;5.338;2023-02-26T06:12:36;7.07;;;2.22;;
40827;SDS011;26549;50.918;5.338;2023-02-26T06:15:02;17.23;;;2.55;;
40827;SDS011;26549;50.918;5.338;2023-02-26T06:17:29;3.05;;;2.25;;
40827;SDS011;26549;50.918;5.338;2023-02-26T06:19:54;8.50;;;2.65;;
40827;SDS011;26549;50.918;5.338;2023-02-26T06:22:20;4.20;;;2.25;;
40827;SDS011;26549;50.918;5.338;2023-02-26T06:24:46;5.43;;;3.15;;
40827;SDS011;26549;50.918;5.338;2023-02-26T06:27:12;4.47;;;1.77;;
40827;SDS011;26549;50.918;5.338;2023-02-26T06:29:38;7.88;;;2.30;;
40827;SDS011;26549;50.918;5.338;2023-02-26T06:32:04;3.15;;;1.55;;
40827;SDS011;26549;50.918;5.338;2023-02-26T06:34:30;11.13;;;1.83;;
40827;SDS011;26549;50.918;5.338;2023-02-26T06:36:57;5.88;;;1.92;;
40827;SDS011;26549;50.918;5.338;2023-02-26T06:39:22;7.43;;;2.63;;
40827;SDS011;26549;50.918;5.338;2023-02-26T06:41:49;5.43;;;1.77;;
40827;SDS011;26549;50.918;5.338;2023-02-26T06:44:15;5.07;;;2.47;;
40827;SDS011;26549;50.918;5.338;2023-02-26T06:46:41;4.85;;;1.80;;
40827;SDS011;26549;50.918;5.338;2023-02-26T06:49:07;4.95;;;2.20;;
40827;SDS011;26549;50.918;5.338;2023-02-26T06:51:33;2.95;;;1.98;;
40827;SDS011;26549;50.918;5.338;2023-02-26T06:53:59;7.60;;;1.70;;
40827;SDS011;26549;50.918;5.338;2023-02-26T06:56:25;4.85;;;1.80;;
40827;SDS011;26549;50.918;5.338;2023-02-26T06:58:51;4.13;;;2.40;;
40827;SDS011;26549;50.918;5.338;2023-02-26T07:01:17;8.23;;;1.98;;
40827;SDS011;26549;50.918;5.338;2023-02-26T07:03:43;5.88;;;2.03;;
40827;SDS011;26549;50.918;5.338;2023-02-26T07:06:09;2.83;;;1.52;;
40827;SDS011;26549;50.918;5.338;2023-02-26T07:08:40;5.80;;;2.50;;
40827;SDS011;26549;50.918;5.338;2023-02-26T07:11:06;4.97;;;2.03;;
40827;SDS011;26549;50.918;5.338;2023-02-26T07:13:34;7.40;;;2.65;;
40827;SDS011;26549;50.918;5.338;2023-02-26T07:16:02;9.38;;;2.60;;
40827;SDS011;26549;50.918;5.338;2023-02-26T07:18:31;4.88;;;2.05;;
40827;SDS011;26549;50.918;5.338;2023-02-26T07:20:58;2.50;;;2.25;;
40827;SDS011;26549;50.918;5.338;2023-02-26T07:23:24;4.43;;;1.70;;
40827;SDS011;26549;50.918;5.338;2023-02-26T07:25:49;3.42;;;1.65;;
40827;SDS011;26549;50.918;5.338;2023-02-26T07:28:15;2.20;;;1.85;;
40827;SDS011;26549;50.918;5.338;2023-02-26T07:30:41;6.35;;;1.80;;
40827;SDS011;26549;50.918;5.338;2023-02-26T07:33:08;2.80;;;1.70;;
40827;SDS011;26549;50.918;5.338;2023-02-26T07:35:35;1.35;;;1.25;;
40827;SDS011;26549;50.918;5.338;2023-02-26T07:38:01;3.45;;;2.63;;
40827;SDS011;26549;50.918;5.338;2023-02-26T07:40:27;5.13;;;2.05;;
40827;SDS011;26549;50.918;5.338;2023-02-26T07:42:53;3.00;;;1.70;;
40827;SDS011;26549;50.918;5.338;2023-02-26T07:45:18;2.15;;;1.92;;
40827;SDS011;26549;50.918;5.338;2023-02-26T07:47:47;4.13;;;1.75;;
40827;SDS011;26549;50.918;5.338;2023-02-26T07:50:13;9.52;;;2.20;;
40827;SDS011;26549;50.918;5.338;2023-02-26T07:52:39;2.65;;;1.92;;
40827;SDS011;26549;50.918;5.338;2023-02-26T07:55:06;3.35;;;1.90;;
40827;SDS011;26549;50.918;5.338;2023-02-26T07:57:33;6.07;;;1.80;;
40827;SDS011;26549;50.918;5.338;2023-02-26T07:59:58;3.13;;;1.90;;
40827;SDS011;26549;50.918;5.338;2023-02-26T08:02:24;7.82;;;1.52;;
40827;SDS011;26549;50.918;5.338;2023-02-26T08:04:50;5.43;;;2.25;;
40827;SDS011;26549;50.918;5.338;2023-02-26T08:07:16;7.10;;;1.60;;
40827;SDS011;26549;50.918;5.338;2023-02-26T08:09:44;4.93;;;1.80;;
40827;SDS011;26549;50.918;5.338;2023-02-26T08:12:09;2.55;;;1.70;;
40827;SDS011;26549;50.918;5.338;2023-02-26T08:14:36;2.78;;;1.73;;
40827;SDS011;26549;50.918;5.338;2023-02-26T08:17:01;6.03;;;1.98;;
40827;SDS011;26549;50.918;5.338;2023-02-26T08:19:27;3.70;;;1.75;;
40827;SDS011;26549;50.918;5.338;2023-02-26T08:21:54;4.93;;;2.28;;
40827;SDS011;26549;50.918;5.338;2023-02-26T08:24:20;7.75;;;1.75;;
40827;SDS011;26549;50.918;5.338;2023-02-26T08:26:46;2.65;;;1.35;;
40827;SDS011;26549;50.918;5.338;2023-02-26T08:29:12;2.67;;;1.92;;
40827;SDS011;26549;50.918;5.338;2023-02-26T08:31:38;4.70;;;1.73;;
40827;SDS011;26549;50.918;5.338;2023-02-26T08:34:04;3.22;;;1.52;;
40827;SDS011;26549;50.918;5.338;2023-02-26T08:36:31;2.38;;;1.40;;
40827;SDS011;26549;50.918;5.338;2023-02-26T08:38:57;2.28;;;1.45;;
40827;SDS011;26549;50.918;5.338;2023-02-26T08:41:23;3.20;;;1.48;;
40827;SDS011;26549;50.918;5.338;2023-02-26T08:43:51;3.30;;;1.70;;
40827;SDS011;26549;50.918;5.338;2023-02-26T08:46:17;3.25;;;1.48;;
40827;SDS011;26549;50.918;5.338;2023-02-26T08:48:43;6.57;;;2.00;;
40827;SDS011;26549;50.918;5.338;2023-02-26T08:51:09;2.45;;;1.55;;
40827;SDS011;26549;50.918;5.338;2023-02-26T08:53:35;5.85;;;2.05;;
40827;SDS011;26549;50.918;5.338;2023-02-26T08:56:01;6.90;;;2.13;;
40827;SDS011;26549;50.918;5.338;2023-02-26T08:58:27;7.97;;;2.30;;
40827;SDS011;26549;50.918;5.338;2023-02-26T09:00:53;2.95;;;1.55;;
40827;SDS011;26549;50.918;5.338;2023-02-26T09:03:19;2.85;;;1.25;;
40827;SDS011;26549;50.918;5.338;2023-02-26T09:05:44;3.03;;;1.80;;
40827;SDS011;26549;50.918;5.338;2023-02-26T09:08:10;1.55;;;1.42;;
40827;SDS011;26549;50.918;5.338;2023-02-26T09:10:39;3.17;;;1.25;;
40827;SDS011;26549;50.918;5.338;2023-02-26T09:13:05;1.58;;;1.38;;
40827;SDS011;26549;50.918;5.338;2023-02-26T09:15:31;5.32;;;1.30;;
40827;SDS011;26549;50.918;5.338;2023-02-26T09:17:57;4.20;;;1.40;;
40827;SDS011;26549;50.918;5.338;2023-02-26T09:20:23;2.13;;;1.08;;
40827;SDS011;26549;50.918;5.338;2023-02-26T09:22:49;4.82;;;1.00;;
40827;SDS011;26549;50.918;5.338;2023-02-26T09:25:14;3.35;;;1.50;;
40827;SDS011;26549;50.918;5.338;2023-02-26T09:27:41;2.70;;;1.45;;
40827;SDS011;26549;50.918;5.338;2023-02-26T09:30:07;2.53;;;1.40;;
40827;SDS011;26549;50.918;5.338;2023-02-26T09:32:34;3.03;;;1.50;;
40827;SDS011;26549;50.918;5.338;2023-02-26T09:35:00;2.70;;;1.40;;
40827;SDS011;26549;50.918;5.338;2023-02-26T09:37:26;5.30;;;1.60;;
40827;SDS011;26549;50.918;5.338;2023-02-26T09:39:52;6.88;;;1.90;;
40827;SDS011;26549;50.918;5.338;2023-02-26T09:44:53;2.17;;;1.03;;
40827;SDS011;26549;50.918;5.338;2023-02-26T09:47:26;3.15;;;1.42;;
40827;SDS011;26549;50.918;5.338;2023-02-26T09:50:02;1.80;;;1.50;;
40827;SDS011;26549;50.918;5.338;2023-02-26T09:58:03;3.08;;;1.52;;
40827;SDS011;26549;50.918;5.338;2023-02-26T10:00:43;1.60;;;1.50;;
40827;SDS011;26549;50.918;5.338;2023-02-26T10:11:43;1.90;;;1.25;;
40827;SDS011;26549;50.918;5.338;2023-02-26T10:15:07;2.40;;;1.70;;
40827;SDS011;26549;50.918;5.338;2023-02-26T10:17:11;2.17;;;1.30;;
40827;SDS011;26549;50.918;5.338;2023-02-26T10:19:48;4.05;;;1.17;;
40827;SDS011;26549;50.918;5.338;2023-02-26T10:22:31;3.00;;;1.05;;
40827;SDS011;26549;50.918;5.338;2023-02-26T10:25:16;2.83;;;1.27;;
40827;SDS011;26549;50.918;5.338;2023-02-26T10:35:57;3.50;;;1.08;;
40827;SDS011;26549;50.918;5.338;2023-02-26T10:38:29;4.13;;;0.95;;
40827;SDS011;26549;50.918;5.338;2023-02-26T10:41:07;1.30;;;1.20;;
40827;SDS011;26549;50.918;5.338;2023-02-26T10:43:39;2.33;;;0.85;;
40827;SDS011;26549;50.918;5.338;2023-02-26T10:46:09;2.67;;;1.02;;
40827;SDS011;26549;50.918;5.338;2023-02-26T10:51:42;2.65;;;0.98;;
40827;SDS011;26549;50.918;5.338;2023-02-26T10:57:00;1.33;;;0.88;;
40827;SDS011;26549;50.918;5.338;2023-02-26T10:59:26;3.78;;;1.00;;
40827;SDS011;26549;50.918;5.338;2023-02-26T11:01:52;4.18;;;1.00;;
40827;SDS011;26549;50.918;5.338;2023-02-26T11:04:22;4.05;;;1.10;;
40827;SDS011;26549;50.918;5.338;2023-02-26T11:06:54;3.72;;;0.95;;
40827;SDS011;26549;50.918;5.338;2023-02-26T11:09:23;7.38;;;1.23;;
40827;SDS011;26549;50.918;5.338;2023-02-26T11:11:53;1.45;;;0.88;;
40827;SDS011;26549;50.918;5.338;2023-02-26T11:14:37;3.15;;;0.80;;
40827;SDS011;26549;50.918;5.338;2023-02-26T11:17:06;1.25;;;1.08;;
40827;SDS011;26549;50.918;5.338;2023-02-26T11:19:39;1.67;;;1.20;;
40827;SDS011;26549;50.918;5.338;2023-02-26T11:22:11;1.48;;;0.98;;
40827;SDS011;26549;50.918;5.338;2023-02-26T11:24:40;3.55;;;1.15;;
40827;SDS011;26549;50.918;5.338;2023-02-26T11:27:13;6.70;;;1.08;;
40827;SDS011;26549;50.918;5.338;2023-02-26T11:29:48;1.27;;;1.17;;
40827;SDS011;26549;50.918;5.338;2023-02-26T11:32:21;2.97;;;0.80;;
40827;SDS011;26549;50.918;5.338;2023-02-26T11:34:53;6.68;;;1.10;;
40827;SDS011;26549;50.918;5.338;2023-02-26T11:37:22;0.75;;;0.75;;
40827;SDS011;26549;50.918;5.338;2023-02-26T11:39:59;2.92;;;1.00;;
40827;SDS011;26549;50.918;5.338;2023-02-26T11:42:36;2.05;;;1.55;;
40827;SDS011;26549;50.918;5.338;2023-02-26T11:45:06;1.30;;;0.90;;
40827;SDS011;26549;50.918;5.338;2023-02-26T11:47:32;2.67;;;0.95;;
40827;SDS011;26549;50.918;5.338;2023-02-26T11:50:00;1.48;;;0.82;;
40827;SDS011;26549;50.918;5.338;2023-02-26T11:55:16;3.03;;;0.95;;
40827;SDS011;26549;50.918;5.338;2023-02-26T11:57:44;1.08;;;0.70;;
40827;SDS011;26549;50.918;5.338;2023-02-26T12:00:18;0.65;;;0.65;;
40827;SDS011;26549;50.918;5.338;2023-02-26T12:02:49;1.75;;;0.90;;
40827;SDS011;26549;50.918;5.338;2023-02-26T12:05:16;1.25;;;0.90;;
40827;SDS011;26549;50.918;5.338;2023-02-26T12:07:42;3.60;;;1.00;;
40827;SDS011;26549;50.918;5.338;2023-02-26T12:10:19;0.75;;;0.75;;
40827;SDS011;26549;50.918;5.338;2023-02-26T12:13:11;1.95;;;0.90;;
40827;SDS011;26549;50.918;5.338;2023-02-26T12:15:59;1.80;;;0.85;;
40827;SDS011;26549;50.918;5.338;2023-02-26T12:33:33;2.30;;;0.77;;
40827;SDS011;26549;50.918;5.338;2023-02-26T12:36:37;1.95;;;0.63;;
40827;SDS011;26549;50.918;5.338;2023-02-26T12:58:32;1.67;;;0.82;;
40827;SDS011;26549;50.918;5.338;2023-02-26T13:06:57;1.35;;;1.00;;
40827;SDS011;26549;50.918;5.338;2023-02-26T13:09:43;0.60;;;0.60;;
40827;SDS011;26549;50.918;5.338;2023-02-26T13:15:27;1.98;;;1.25;;
40827;SDS011;26549;50.918;5.338;2023-02-26T13:18:00;1.67;;;1.42;;
40827;SDS011;26549;50.918;5.338;2023-02-26T13:20:33;1.50;;;0.90;;
40827;SDS011;26549;50.918;5.338;2023-02-26T13:23:11;2.20;;;0.80;;
40827;SDS011;26549;50.918;5.338;2023-02-26T13:25:44;1.17;;;1.05;;
40827;SDS011;26549;50.918;5.338;2023-02-26T13:28:32;1.27;;;1.15;;
40827;SDS011;26549;50.918;5.338;2023-02-26T13:31:18;4.07;;;1.35;;
40827;SDS011;26549;50.918;5.338;2023-02-26T13:34:00;0.80;;;0.80;;
40827;SDS011;26549;50.918;5.338;2023-02-26T13:36:30;3.75;;;0.90;;
40827;SDS011;26549;50.918;5.338;2023-02-26T13:39:18;1.92;;;1.20;;
40827;SDS011;26549;50.918;5.338;2023-02-26T13:42:15;3.35;;;1.00;;
40827;SDS011;26549;50.918;5.338;2023-02-26T13:47:59;1.00;;;1.00;;
40827;SDS011;26549;50.918;5.338;2023-02-26T13:50:34;2.20;;;0.93;;
40827;SDS011;26549;50.918;5.338;2023-02-26T13:53:04;3.55;;;1.23;;
40827;SDS011;26549;50.918;5.338;2023-02-26T13:59:01;1.92;;;0.90;;
40827;SDS011;26549;50.918;5.338;2023-02-26T14:01:48;0.90;;;0.60;;
40827;SDS011;26549;50.918;5.338;2023-02-26T14:06:47;1.75;;;0.70;;
40827;SDS011;26549;50.918;5.338;2023-02-26T14:12:00;1.33;;;0.80;;
40827;SDS011;26549;50.918;5.338;2023-02-26T14:14:43;1.00;;;0.90;;
40827;SDS011;26549;50.918;5.338;2023-02-26T14:17:35;1.77;;;1.25;;
40827;SDS011;26549;50.918;5.338;2023-02-26T14:20:21;1.35;;;0.90;;
40827;SDS011;26549;50.918;5.338;2023-02-26T14:22:57;3.40;;;1.13;;
40827;SDS011;26549;50.918;5.338;2023-02-26T14:25:39;1.92;;;0.93;;
40827;SDS011;26549;50.918;5.338;2023-02-26T14:30:57;3.00;;;0.82;;
40827;SDS011;26549;50.918;5.338;2023-02-26T14:33:30;2.28;;;1.13;;
40827;SDS011;26549;50.918;5.338;2023-02-26T14:36:03;1.25;;;0.70;;
40827;SDS011;26549;50.918;5.338;2023-02-26T14:38:36;2.10;;;0.80;;
40827;SDS011;26549;50.918;5.338;2023-02-26T14:43:59;3.40;;;1.00;;
40827;SDS011;26549;50.918;5.338;2023-02-26T14:49:03;1.55;;;1.00;;
40827;SDS011;26549;50.918;5.338;2023-02-26T14:51:52;3.40;;;1.00;;
40827;SDS011;26549;50.918;5.338;2023-02-26T14:58:04;1.40;;;1.00;;
40827;SDS011;26549;50.918;5.338;2023-02-26T15:09:06;0.85;;;0.65;;
40827;SDS011;26549;50.918;5.338;2023-02-26T15:11:51;2.15;;;0.77;;
40827;SDS011;26549;50.918;5.338;2023-02-26T15:17:20;3.05;;;0.82;;
40827;SDS011;26549;50.918;5.338;2023-02-26T15:25:45;1.00;;;0.90;;
40827;SDS011;26549;50.918;5.338;2023-02-26T15:28:10;1.52;;;1.10;;
40827;SDS011;26549;50.918;5.338;2023-02-26T15:30:42;2.83;;;1.23;;
40827;SDS011;26549;50.918;5.338;2023-02-26T15:33:13;1.00;;;0.90;;
40827;SDS011;26549;50.918;5.338;2023-02-26T15:35:42;0.90;;;0.82;;
40827;SDS011;26549;50.918;5.338;2023-02-26T15:38:09;1.38;;;0.93;;
40827;SDS011;26549;50.918;5.338;2023-02-26T15:40:35;1.23;;;1.10;;
40827;SDS011;26549;50.918;5.338;2023-02-26T15:43:02;1.38;;;1.00;;
40827;SDS011;26549;50.918;5.338;2023-02-26T15:45:42;0.60;;;0.60;;
40827;SDS011;26549;50.918;5.338;2023-02-26T15:48:25;2.45;;;1.65;;
40827;SDS011;26549;50.918;5.338;2023-02-26T15:50:56;2.58;;;0.93;;
40827;SDS011;26549;50.918;5.338;2023-02-26T15:56:14;1.45;;;0.90;;
40827;SDS011;26549;50.918;5.338;2023-02-26T15:58:51;4.72;;;0.82;;
40827;SDS011;26549;50.918;5.338;2023-02-26T16:01:25;3.13;;;1.05;;
40827;SDS011;26549;50.918;5.338;2023-02-26T16:03:55;1.10;;;1.00;;
40827;SDS011;26549;50.918;5.338;2023-02-26T16:06:23;1.92;;;0.88;;
40827;SDS011;26549;50.918;5.338;2023-02-26T16:08:53;2.63;;;0.90;;
40827;SDS011;26549;50.918;5.338;2023-02-26T16:11:19;2.47;;;0.80;;
40827;SDS011;26549;50.918;5.338;2023-02-26T16:13:48;0.90;;;0.90;;
40827;SDS011;26549;50.918;5.338;2023-02-26T16:16:58;2.35;;;0.90;;
40827;SDS011;26549;50.918;5.338;2023-02-26T16:19:07;4.20;;;1.08;;
40827;SDS011;26549;50.918;5.338;2023-02-26T16:21:38;2.25;;;1.00;;
40827;SDS011;26549;50.918;5.338;2023-02-26T16:24:06;1.40;;;0.68;;
40827;SDS011;26549;50.918;5.338;2023-02-26T16:26:45;1.80;;;0.82;;
40827;SDS011;26549;50.918;5.338;2023-02-26T16:29:18;1.65;;;0.98;;
40827;SDS011;26549;50.918;5.338;2023-02-26T16:31:50;3.08;;;1.20;;
40827;SDS011;26549;50.918;5.338;2023-02-26T16:37:24;2.42;;;1.15;;
40827;SDS011;26549;50.918;5.338;2023-02-26T16:50:55;2.95;;;0.93;;
40827;SDS011;26549;50.918;5.338;2023-02-26T16:53:29;2.28;;;1.20;;
40827;SDS011;26549;50.918;5.338;2023-02-26T16:56:08;5.95;;;1.00;;
40827;SDS011;26549;50.918;5.338;2023-02-26T16:58:41;0.93;;;0.80;;
40827;SDS011;26549;50.918;5.338;2023-02-26T17:01:19;3.28;;;0.90;;
40827;SDS011;26549;50.918;5.338;2023-02-26T17:03:47;1.90;;;1.48;;
40827;SDS011;26549;50.918;5.338;2023-02-26T17:06:20;2.85;;;0.98;;
40827;SDS011;26549;50.918;5.338;2023-02-26T17:08:51;4.50;;;1.20;;
40827;SDS011;26549;50.918;5.338;2023-02-26T17:11:28;1.38;;;0.82;;
40827;SDS011;26549;50.918;5.338;2023-02-26T17:16:51;1.60;;;1.13;;
40827;SDS011;26549;50.918;5.338;2023-02-26T17:19:17;2.30;;;1.23;;
40827;SDS011;26549;50.918;5.338;2023-02-26T17:21:45;3.55;;;1.40;;
40827;SDS011;26549;50.918;5.338;2023-02-26T17:24:26;1.20;;;1.10;;
40827;SDS011;26549;50.918;5.338;2023-02-26T17:26:55;1.70;;;1.10;;
40827;SDS011;26549;50.918;5.338;2023-02-26T17:29:24;2.72;;;1.20;;
40827;SDS011;26549;50.918;5.338;2023-02-26T17:31:56;2.38;;;1.77;;
40827;SDS011;26549;50.918;5.338;2023-02-26T17:34:22;3.28;;;1.00;;
40827;SDS011;26549;50.918;5.338;2023-02-26T17:36:48;2.78;;;1.83;;
40827;SDS011;26549;50.918;5.338;2023-02-26T17:39:14;2.25;;;1.65;;
40827;SDS011;26549;50.918;5.338;2023-02-26T17:41:43;2.55;;;1.15;;
40827;SDS011;26549;50.918;5.338;2023-02-26T17:44:10;2.17;;;1.05;;
40827;SDS011;26549;50.918;5.338;2023-02-26T17:46:36;1.38;;;1.00;;
40827;SDS011;26549;50.918;5.338;2023-02-26T17:49:02;1.45;;;0.90;;
40827;SDS011;26549;50.918;5.338;2023-02-26T17:51:28;1.75;;;0.93;;
40827;SDS011;26549;50.918;5.338;2023-02-26T17:54:01;3.90;;;1.50;;
40827;SDS011;26549;50.918;5.338;2023-02-26T17:56:28;3.45;;;1.25;;
40827;SDS011;26549;50.918;5.338;2023-02-26T17:58:56;2.10;;;1.23;;
40827;SDS011;26549;50.918;5.338;2023-02-26T18:01:23;1.77;;;1.10;;